Time;durP1;ratioP1;P1;durP2;ratioP2;P2;SDS_P1;SDS_P2;PMS_P1;PMS_P2;Temp;Humidity;BMP_temperature;BMP_pressure;BME280_temperature;BME280_humidity;BME280_pressure;Samples;Min_cycle;Max_cycle;Signal;HPM_P1;HPM_P2
2023/12/04 00:00:24;;;;;;;12.03;7.10;;;;;;;19.05;40.15;100451.22;4986820;28;20166;-74
2023/12/04 00:02:49;;;;;;;15.80;7.43;;;;;;;18.96;39.79;100450.63;4992070;28;20181;-72
2023/12/04 00:05:15;;;;;;;10.40;6.13;;;;;;;18.91;39.95;100448.09;4962691;28;20194;-73
2023/12/04 00:07:40;;;;;;;9.17;6.80;;;;;;;18.89;40.18;100441.09;4976780;28;20192;-73
2023/12/04 00:10:07;;;;;;;13.97;6.30;;;;;;;19.00;40.26;100442.94;5003081;28;20193;-72
2023/12/04 00:12:32;;;;;;;8.70;6.40;;;;;;;19.04;40.56;100434.44;4992467;28;20224;-72
2023/12/04 00:14:59;;;;;;;8.63;6.10;;;;;;;19.06;40.51;100434.88;4992708;28;20408;-74
2023/12/04 00:17:24;;;;;;;8.97;6.37;;;;;;;19.05;40.92;100436.91;4975918;28;20645;-72
2023/12/04 00:19:50;;;;;;;9.80;6.40;;;;;;;18.88;41.51;100431.69;5007468;28;20439;-72
2023/12/04 00:22:15;;;;;;;9.43;6.50;;;;;;;18.86;41.78;100424.72;5008396;28;20184;-72
2023/12/04 00:24:41;;;;;;;8.03;6.13;;;;;;;18.84;42.48;100412.81;5008425;28;20189;-72
2023/12/04 00:27:07;;;;;;;10.17;6.27;;;;;;;18.81;42.24;100411.53;5008348;28;20596;-73
2023/12/04 00:29:32;;;;;;;9.00;6.10;;;;;;;18.84;42.08;100407.09;5011029;28;20447;-74
2023/12/04 00:31:58;;;;;;;8.40;6.27;;;;;;;18.85;42.17;100403.00;5000143;28;20249;-74
2023/12/04 00:34:23;;;;;;;10.37;7.10;;;;;;;18.79;42.60;100393.94;5002349;28;20729;-73
2023/12/04 00:36:48;;;;;;;9.57;6.10;;;;;;;18.79;42.65;100387.38;5011828;28;20185;-72
2023/12/04 00:39:14;;;;;;;9.27;6.87;;;;;;;18.79;42.70;100391.06;5030087;28;20168;-72
2023/12/04 00:41:39;;;;;;;9.10;5.80;;;;;;;18.78;43.30;100391.44;4997482;28;20192;-72
2023/12/04 00:44:07;;;;;;;8.10;5.60;;;;;;;18.78;42.96;100400.03;5009218;28;20181;-72
2023/12/04 00:46:32;;;;;;;8.70;5.70;;;;;;;18.76;43.36;100388.97;4978221;28;20177;-72
2023/12/04 00:48:58;;;;;;;9.37;5.53;;;;;;;18.70;43.50;100379.03;5018026;28;20435;-74
2023/12/04 00:51:23;;;;;;;9.17;6.40;;;;;;;18.69;43.20;100377.41;5010022;28;20181;-72
2023/12/04 00:53:48;;;;;;;8.03;5.73;;;;;;;18.69;43.18;100371.69;5010172;28;20176;-72
2023/12/04 00:56:14;;;;;;;8.40;5.17;;;;;;;18.71;43.47;100374.97;5006052;28;20193;-72
2023/12/04 00:58:39;;;;;;;10.00;6.77;;;;;;;18.70;43.74;100367.59;5009652;28;20199;-72
2023/12/04 01:01:06;;;;;;;10.70;6.13;;;;;;;18.65;43.70;100356.47;4991961;28;20184;-72
2023/12/04 01:03:33;;;;;;;7.93;5.40;;;;;;;18.62;44.29;100357.22;5009755;28;20188;-72
2023/12/04 01:05:59;;;;;;;6.67;5.20;;;;;;;18.67;44.42;100364.69;5008704;28;20444;-73
2023/12/04 01:08:24;;;;;;;7.33;5.17;;;;;;;18.67;44.08;100361.84;5009643;28;20428;-72
2023/12/04 01:10:50;;;;;;;9.33;5.83;;;;;;;18.64;43.94;100363.41;5008979;28;20442;-72
2023/12/04 01:13:15;;;;;;;7.90;5.07;;;;;;;18.69;43.95;100363.09;5009825;28;20193;-73
2023/12/04 01:15:42;;;;;;;6.60;5.00;;;;;;;18.70;44.25;100361.88;4991468;28;20510;-72
2023/12/04 01:18:08;;;;;;;7.43;5.27;;;;;;;18.68;43.86;100358.59;5007347;28;21123;-72
2023/12/04 01:20:34;;;;;;;8.20;5.83;;;;;;;18.65;44.48;100355.66;4990178;28;20432;-73
2023/12/04 01:22:59;;;;;;;8.50;6.03;;;;;;;18.68;44.67;100363.47;5007403;28;20492;-72
2023/12/04 01:25:24;;;;;;;7.10;5.17;;;;;;;18.67;44.63;100350.38;5007816;28;20184;-78
2023/12/04 01:27:50;;;;;;;7.40;5.60;;;;;;;18.63;44.33;100336.03;4988812;28;20185;-78
2023/12/04 01:30:15;;;;;;;12.27;6.27;;;;;;;18.70;44.46;100327.56;4989125;28;20177;-78
2023/12/04 01:32:41;;;;;;;7.67;5.90;;;;;;;18.61;45.23;100324.13;4985764;28;20198;-77
2023/12/04 01:35:07;;;;;;;12.53;6.33;;;;;;;18.62;44.50;100322.13;4986731;28;20613;-78
2023/12/04 01:37:32;;;;;;;6.10;4.77;;;;;;;18.55;44.70;100325.66;4987842;28;20620;-78
2023/12/04 01:39:58;;;;;;;7.03;5.40;;;;;;;18.56;44.90;100321.59;5009917;28;20180;-74
2023/12/04 01:42:23;;;;;;;7.23;5.60;;;;;;;18.59;45.12;100326.56;4974619;28;20191;-78
2023/12/04 01:44:48;;;;;;;7.70;5.53;;;;;;;18.54;45.56;100324.00;5002081;28;20172;-77
2023/12/04 01:47:14;;;;;;;7.33;4.90;;;;;;;18.50;45.13;100328.84;4988998;28;20189;-78
2023/12/04 01:49:39;;;;;;;7.13;5.10;;;;;;;18.47;45.54;100338.16;5008992;28;20559;-78
2023/12/04 01:52:05;;;;;;;7.77;5.57;;;;;;;18.48;45.76;100322.69;4958461;28;20819;-78
2023/12/04 01:54:30;;;;;;;7.00;5.20;;;;;;;18.45;45.84;100326.28;4988671;28;20670;-78
2023/12/04 01:56:56;;;;;;;7.47;5.17;;;;;;;18.50;46.01;100328.00;4984080;28;20188;-78
2023/12/04 01:59:21;;;;;;;6.40;4.87;;;;;;;18.47;46.20;100320.19;4971115;28;20188;-77
2023/12/04 02:01:47;;;;;;;8.57;5.47;;;;;;;18.48;45.54;100308.38;4980779;28;20183;-77
2023/12/04 02:04:13;;;;;;;6.30;4.97;;;;;;;18.48;45.87;100296.97;4991686;28;20300;-78
2023/12/04 02:06:40;;;;;;;7.10;5.10;;;;;;;18.49;45.87;100312.91;4974663;28;20244;-75
2023/12/04 02:09:06;;;;;;;6.67;5.00;;;;;;;18.55;45.65;100307.66;4958962;28;20181;-78
2023/12/04 02:11:32;;;;;;;7.73;4.93;;;;;;;18.52;45.73;100306.41;4980809;28;20518;-78
2023/12/04 02:13:58;;;;;;;7.40;5.60;;;;;;;18.47;45.96;100301.00;4979114;28;20979;-75
2023/12/04 02:16:24;;;;;;;7.63;5.17;;;;;;;18.46;46.05;100310.78;5012243;28;20187;-76
2023/12/04 02:18:49;;;;;;;6.97;4.83;;;;;;;18.47;46.01;100314.47;4980504;28;20196;-77
2023/12/04 02:21:15;;;;;;;7.70;5.30;;;;;;;18.48;46.26;100299.81;4996504;28;20789;-77
2023/12/04 02:23:40;;;;;;;7.30;5.27;;;;;;;18.44;45.91;100300.94;4977462;28;20191;-77
2023/12/04 02:26:10;;;;;;;6.27;4.60;;;;;;;18.46;45.69;100293.63;4960803;28;20189;-77
2023/12/04 02:28:35;;;;;;;6.30;4.80;;;;;;;18.44;46.76;100289.50;4993875;28;20224;-78
2023/12/04 02:31:01;;;;;;;5.50;4.37;;;;;;;18.47;46.29;100283.84;4975744;28;20587;-77
2023/12/04 02:33:27;;;;;;;5.77;4.73;;;;;;;18.41;46.30;100278.84;4963489;28;20237;-77
2023/12/04 02:35:52;;;;;;;6.50;4.70;;;;;;;18.42;46.27;100280.50;4975301;28;20192;-78
2023/12/04 02:38:18;;;;;;;6.23;5.23;;;;;;;18.43;46.47;100267.84;4977375;28;20225;-77
2023/12/04 02:40:43;;;;;;;6.20;4.57;;;;;;;18.47;46.02;100266.69;4992039;28;20178;-77
2023/12/04 02:43:08;;;;;;;8.93;5.37;;;;;;;18.40;46.21;100266.56;4977017;28;20254;-77
2023/12/04 02:45:34;;;;;;;6.43;4.60;;;;;;;18.39;46.31;100264.09;4978027;28;20246;-77
2023/12/04 02:47:59;;;;;;;6.53;4.37;;;;;;;18.35;46.81;100251.75;4995210;28;20181;-76
2023/12/04 02:50:25;;;;;;;6.60;4.77;;;;;;;18.36;46.57;100248.53;4977883;28;20192;-77
2023/12/04 02:52:50;;;;;;;6.50;4.67;;;;;;;18.35;46.47;100244.03;4977718;28;20263;-77
2023/12/04 02:55:16;;;;;;;6.30;4.63;;;;;;;18.36;47.10;100242.00;4992629;28;20189;-77
2023/12/04 02:57:41;;;;;;;5.97;4.50;;;;;;;18.36;46.42;100242.00;4992507;28;20169;-77
2023/12/04 03:00:07;;;;;;;6.93;4.60;;;;;;;18.35;46.92;100235.44;4991859;28;20195;-77
2023/12/04 03:02:33;;;;;;;7.00;5.17;;;;;;;18.34;47.14;100241.53;4977318;28;20196;-77
2023/12/04 03:04:58;;;;;;;6.47;4.77;;;;;;;18.36;46.53;100248.53;4990502;28;21226;-76
2023/12/04 03:07:24;;;;;;;6.70;4.63;;;;;;;18.30;47.16;100250.03;4972806;28;20197;-77
2023/12/04 03:09:50;;;;;;;7.10;4.63;;;;;;;18.32;46.46;100255.38;4976544;28;20192;-77
2023/12/04 03:12:16;;;;;;;5.80;4.63;;;;;;;18.33;46.99;100249.31;4970799;28;20467;-77
2023/12/04 03:14:42;;;;;;;6.40;4.67;;;;;;;18.37;46.75;100241.59;4976579;28;20825;-77
2023/12/04 03:17:07;;;;;;;6.10;4.30;;;;;;;18.28;47.23;100241.03;4991586;28;20412;-77
2023/12/04 03:19:33;;;;;;;6.73;4.57;;;;;;;18.32;47.36;100241.09;4992181;28;20185;-77
2023/12/04 03:21:59;;;;;;;7.43;5.40;;;;;;;18.31;46.92;100245.16;4992223;28;20173;-77
2023/12/04 03:24:25;;;;;;;6.70;4.70;;;;;;;18.36;47.27;100244.88;4995917;28;20645;-77
2023/12/04 03:26:50;;;;;;;6.40;4.60;;;;;;;18.40;46.77;100243.72;4960461;28;20432;-77
2023/12/04 03:29:16;;;;;;;6.40;4.77;;;;;;;18.37;46.62;100247.31;4960459;28;20177;-77
2023/12/04 03:31:41;;;;;;;7.50;4.97;;;;;;;18.34;47.23;100239.53;4991200;28;20189;-77
2023/12/04 03:34:07;;;;;;;5.73;4.70;;;;;;;18.31;47.39;100234.53;4991262;28;20241;-78
2023/12/04 03:36:32;;;;;;;5.43;4.37;;;;;;;18.32;47.26;100233.34;4967181;28;20551;-77
2023/12/04 03:38:57;;;;;;;6.53;4.30;;;;;;;18.35;47.03;100232.59;4973723;28;20858;-74
2023/12/04 03:41:23;;;;;;;5.60;4.07;;;;;;;18.35;47.47;100237.47;4974899;28;20622;-77
2023/12/04 03:43:48;;;;;;;6.93;5.07;;;;;;;18.34;47.48;100233.81;4976892;28;20621;-77
2023/12/04 03:46:15;;;;;;;6.97;4.37;;;;;;;18.33;47.39;100228.47;4979768;28;20244;-72
2023/12/04 03:48:41;;;;;;;6.00;4.17;;;;;;;18.27;47.59;100222.19;4989634;28;20197;-72
2023/12/04 03:51:07;;;;;;;5.87;4.10;;;;;;;18.33;47.43;100237.03;5015849;28;20455;-72
2023/12/04 03:53:32;;;;;;;5.90;4.47;;;;;;;18.31;47.63;100237.38;5009768;28;20645;-72
2023/12/04 03:55:58;;;;;;;5.80;3.97;;;;;;;18.29;47.93;100228.38;5028561;28;20157;-74
2023/12/04 03:58:24;;;;;;;5.57;4.00;;;;;;;18.32;47.14;100232.50;5006881;28;20193;-73
2023/12/04 04:00:49;;;;;;;7.40;4.47;;;;;;;18.30;47.34;100235.75;5003917;28;20931;-72
2023/12/04 04:03:14;;;;;;;5.30;4.13;;;;;;;18.28;47.46;100228.75;4994890;28;20609;-72
2023/12/04 04:05:40;;;;;;;6.97;4.47;;;;;;;18.29;47.15;100225.53;5009687;28;20565;-72
2023/12/04 04:08:07;;;;;;;6.73;3.90;;;;;;;18.28;47.19;100223.88;5009489;28;20185;-72
2023/12/04 04:10:32;;;;;;;4.37;3.43;;;;;;;18.27;47.33;100227.09;5010020;28;20164;-72
2023/12/04 04:12:58;;;;;;;6.97;4.60;;;;;;;18.24;47.67;100219.28;5009031;28;20875;-72
2023/12/04 04:15:23;;;;;;;5.60;4.13;;;;;;;18.27;47.38;100221.38;5010057;28;20219;-72
2023/12/04 04:17:49;;;;;;;6.50;4.27;;;;;;;18.27;47.28;100221.38;5008185;28;20180;-72
2023/12/04 04:20:14;;;;;;;5.10;4.10;;;;;;;18.23;47.53;100209.91;5008527;28;20185;-73
2023/12/04 04:22:40;;;;;;;6.97;4.80;;;;;;;18.24;47.97;100210.72;4990122;28;20224;-72
2023/12/04 04:25:09;;;;;;;4.90;3.50;;;;;;;18.20;47.90;100199.22;4988742;28;20185;-72
2023/12/04 04:27:34;;;;;;;5.80;4.17;;;;;;;18.18;48.16;100195.94;4991865;28;20437;-72
2023/12/04 04:30:00;;;;;;;5.17;4.10;;;;;;;18.22;47.72;100198.84;5010293;28;20821;-73
2023/12/04 04:32:26;;;;;;;5.90;4.30;;;;;;;18.21;47.66;100194.34;5009087;28;20239;-72
2023/12/04 04:34:51;;;;;;;6.03;3.73;;;;;;;18.21;48.44;100192.28;5010584;28;20233;-72
2023/12/04 04:37:17;;;;;;;5.90;3.93;;;;;;;18.28;47.48;100180.16;5025111;28;20165;-72
2023/12/04 04:39:42;;;;;;;6.20;4.23;;;;;;;18.20;48.00;100190.66;4992544;28;20471;-72
2023/12/04 04:42:08;;;;;;;4.77;3.40;;;;;;;18.26;47.87;100182.59;5015966;28;20188;-72
2023/12/04 04:44:33;;;;;;;6.63;4.03;;;;;;;18.24;48.04;100174.41;5015638;28;20185;-72
2023/12/04 04:46:59;;;;;;;5.07;4.00;;;;;;;18.27;47.75;100170.75;4990616;28;20507;-73
2023/12/04 04:49:24;;;;;;;7.50;4.90;;;;;;;18.29;47.86;100162.66;4990506;28;20256;-72
2023/12/04 04:51:50;;;;;;;6.70;4.20;;;;;;;18.32;47.54;100167.63;4972686;28;20209;-72
2023/12/04 04:54:15;;;;;;;6.70;4.40;;;;;;;18.29;47.37;100162.66;4974370;28;20247;-72
2023/12/04 04:56:40;;;;;;;5.00;3.67;;;;;;;18.31;47.72;100168.00;4990899;28;20515;-76
2023/12/04 04:59:06;;;;;;;5.60;3.93;;;;;;;18.26;47.69;100163.41;4987825;28;20506;-76
2023/12/04 05:01:31;;;;;;;6.40;4.27;;;;;;;18.30;48.05;100170.00;4970906;28;20196;-76
2023/12/04 05:03:57;;;;;;;5.80;4.10;;;;;;;18.31;47.70;100157.38;4991003;28;20181;-77
2023/12/04 05:06:22;;;;;;;5.03;3.60;;;;;;;18.29;47.84;100150.38;4973957;28;20176;-76
2023/12/04 05:08:50;;;;;;;5.77;4.23;;;;;;;18.32;47.59;100147.59;4989485;28;20192;-76
2023/12/04 05:11:15;;;;;;;4.83;3.80;;;;;;;18.32;47.52;100143.91;4990835;28;20173;-76
2023/12/04 05:13:41;;;;;;;6.57;3.90;;;;;;;18.29;47.79;100138.94;5005866;28;20475;-76
2023/12/04 05:16:07;;;;;;;6.60;4.57;;;;;;;18.28;48.21;100143.03;4974024;28;20149;-76
2023/12/04 05:18:32;;;;;;;5.70;3.77;;;;;;;18.27;48.38;100135.66;4971600;28;20478;-77
2023/12/04 05:20:58;;;;;;;6.00;4.10;;;;;;;18.24;47.82;100140.13;4978260;28;20212;-75
2023/12/04 05:23:23;;;;;;;5.30;3.57;;;;;;;18.22;48.47;100139.66;4971896;28;20858;-76
2023/12/04 05:25:48;;;;;;;5.30;4.03;;;;;;;18.27;47.80;100136.47;4987933;28;20849;-77
2023/12/04 05:28:14;;;;;;;5.50;3.60;;;;;;;18.28;47.88;100135.28;4970816;28;20158;-77
2023/12/04 05:30:39;;;;;;;6.03;4.50;;;;;;;18.24;48.07;100122.13;4989034;28;20188;-77
2023/12/04 05:33:05;;;;;;;5.50;3.90;;;;;;;18.26;47.96;100122.59;4990189;28;20197;-77
2023/12/04 05:35:33;;;;;;;5.43;4.30;;;;;;;18.21;48.05;100125.78;4969606;28;20680;-77
2023/12/04 05:37:59;;;;;;;4.43;3.30;;;;;;;18.22;47.66;100127.41;4955708;28;20162;-76
2023/12/04 05:40:24;;;;;;;7.20;4.00;;;;;;;18.26;47.85;100129.09;5003438;28;20490;-76
2023/12/04 05:42:50;;;;;;;4.83;3.80;;;;;;;18.21;48.69;100123.72;4991593;28;20223;-77
2023/12/04 05:45:15;;;;;;;5.07;3.80;;;;;;;18.25;48.18;100110.31;5003444;28;20180;-76
2023/12/04 05:47:41;;;;;;;5.53;4.20;;;;;;;18.20;48.54;100113.50;4995365;28;20193;-76
2023/12/04 05:50:07;;;;;;;5.10;4.10;;;;;;;18.22;48.47;100111.06;4994373;28;20726;-76
2023/12/04 05:52:32;;;;;;;4.00;3.43;;;;;;;18.24;48.09;100108.69;4981715;28;20201;-76
2023/12/04 05:54:58;;;;;;;5.70;3.97;;;;;;;18.24;48.11;100093.56;4974056;28;20525;-75
2023/12/04 05:57:23;;;;;;;4.80;4.20;;;;;;;18.22;48.48;100088.22;4989316;28;20256;-76
2023/12/04 05:59:49;;;;;;;5.13;3.47;;;;;;;18.23;48.48;100083.34;4989877;28;20255;-76
2023/12/04 06:02:15;;;;;;;6.80;4.60;;;;;;;18.24;47.97;100074.38;4970878;28;20648;-78
2023/12/04 06:04:40;;;;;;;5.00;3.70;;;;;;;18.29;47.74;100065.50;4990301;28;20172;-76
2023/12/04 06:07:06;;;;;;;5.67;3.63;;;;;;;18.28;48.31;100058.13;5005818;28;21225;-76
2023/12/04 06:09:32;;;;;;;4.93;3.57;;;;;;;18.27;47.96;100050.75;4990274;28;20189;-76
2023/12/04 06:11:58;;;;;;;6.43;4.17;;;;;;;18.28;48.70;100054.44;4990319;28;20531;-75
2023/12/04 06:14:23;;;;;;;4.57;3.43;;;;;;;18.34;47.77;100068.03;4974583;28;20616;-76
2023/12/04 06:16:48;;;;;;;4.20;3.50;;;;;;;18.35;47.90;100054.56;4957002;28;20185;-76
2023/12/04 06:19:14;;;;;;;4.67;3.87;;;;;;;18.35;48.12;100046.00;4974097;28;20196;-76
2023/12/04 06:21:40;;;;;;;5.03;3.53;;;;;;;18.31;47.64;100039.38;4990633;28;20200;-76
2023/12/04 06:24:06;;;;;;;4.70;3.63;;;;;;;18.31;48.09;100030.81;4974628;28;20165;-77
2023/12/04 06:26:31;;;;;;;4.63;3.40;;;;;;;18.36;47.95;100036.22;4975893;28;20648;-75
2023/12/04 06:28:57;;;;;;;4.80;3.60;;;;;;;18.33;48.02;100028.41;5003644;28;20513;-76
2023/12/04 06:31:23;;;;;;;5.23;3.50;;;;;;;18.31;48.08;100040.19;4967830;28;20303;-76
2023/12/04 06:33:49;;;;;;;6.13;3.70;;;;;;;18.33;47.99;100031.28;4992796;28;20751;-76
2023/12/04 06:36:14;;;;;;;4.93;3.60;;;;;;;18.29;48.46;100014.06;4990207;28;20172;-76
2023/12/04 06:38:40;;;;;;;5.23;3.57;;;;;;;18.27;48.00;100016.44;4973355;28;20188;-77
2023/12/04 06:41:06;;;;;;;4.47;3.80;;;;;;;18.26;48.55;100019.72;4990442;28;20158;-78
2023/12/04 06:43:32;;;;;;;5.60;3.50;;;;;;;18.28;48.24;100017.28;4972421;28;20300;-76
2023/12/04 06:45:58;;;;;;;4.97;3.60;;;;;;;18.24;48.25;100014.38;5000785;28;20423;-75
2023/12/04 06:48:24;;;;;;;4.80;3.70;;;;;;;18.33;48.00;100022.69;4977444;28;20412;-76
2023/12/04 06:50:50;;;;;;;4.83;3.63;;;;;;;18.22;48.60;100039.63;4971159;28;20181;-76
2023/12/04 06:53:15;;;;;;;4.57;3.40;;;;;;;18.29;48.01;100036.06;4978402;28;20567;-76
2023/12/04 06:55:40;;;;;;;5.13;3.63;;;;;;;18.28;48.43;100037.28;4976990;28;20648;-76
2023/12/04 06:58:06;;;;;;;5.63;3.40;;;;;;;18.24;48.71;100048.66;4975638;28;20264;-76
2023/12/04 07:00:31;;;;;;;5.67;4.00;;;;;;;18.27;48.76;100044.22;4960119;28;20292;-76
2023/12/04 07:02:57;;;;;;;4.90;3.80;;;;;;;18.24;48.38;100042.13;4990053;28;20166;-76
2023/12/04 07:05:22;;;;;;;4.87;3.40;;;;;;;18.27;48.19;100053.59;4991736;28;20243;-76
2023/12/04 07:07:48;;;;;;;6.33;3.40;;;;;;;18.30;47.89;100052.84;4993148;28;20540;-76
2023/12/04 07:10:14;;;;;;;5.33;3.67;;;;;;;18.28;47.93;100055.28;4993629;28;20165;-76
2023/12/04 07:12:44;;;;;;;5.87;3.70;;;;;;;18.26;48.24;100066.25;4976463;28;20208;-76
2023/12/04 07:15:11;;;;;;;5.00;3.23;;;;;;;18.31;48.22;100063.06;4992761;28;20436;-77
2023/12/04 07:17:37;;;;;;;8.37;3.93;;;;;;;18.28;48.50;100045.88;4960447;28;20783;-77
2023/12/04 07:20:02;;;;;;;5.03;3.40;;;;;;;18.24;48.76;100037.25;4956276;28;20433;-74
2023/12/04 07:22:28;;;;;;;5.20;3.83;;;;;;;18.24;48.59;100039.25;4956660;28;20167;-77
2023/12/04 07:24:53;;;;;;;4.90;3.77;;;;;;;18.30;48.46;100049.97;4968485;28;20201;-77
2023/12/04 07:27:18;;;;;;;5.10;3.50;;;;;;;18.36;48.20;100039.88;4973197;28;20185;-77
2023/12/04 07:29:44;;;;;;;4.53;3.27;;;;;;;18.34;48.19;100050.91;4977096;28;20170;-77
2023/12/04 07:32:09;;;;;;;5.53;3.70;;;;;;;18.41;48.24;100047.31;4973516;28;20202;-76
2023/12/04 07:34:36;;;;;;;4.30;3.17;;;;;;;18.35;48.38;100058.25;4991597;28;20240;-77
2023/12/04 07:37:02;;;;;;;5.87;3.97;;;;;;;18.37;48.24;100049.31;4973759;28;20185;-77
2023/12/04 07:39:28;;;;;;;5.20;3.60;;;;;;;18.36;48.34;100039.09;4973235;28;20488;-76
2023/12/04 07:41:53;;;;;;;4.40;3.10;;;;;;;18.36;48.40;100034.19;4975838;28;20184;-76
2023/12/04 07:44:19;;;;;;;5.40;3.83;;;;;;;18.35;48.08;100023.97;4992199;28;20181;-77
2023/12/04 07:46:44;;;;;;;4.50;3.27;;;;;;;18.36;48.40;100025.59;4974392;28;20251;-77
2023/12/04 07:49:10;;;;;;;5.57;3.83;;;;;;;18.33;48.17;100011.28;4975225;28;20229;-77
2023/12/04 07:51:35;;;;;;;4.63;3.67;;;;;;;18.31;48.31;100017.34;4959100;28;20667;-77
2023/12/04 07:54:01;;;;;;;5.50;3.47;;;;;;;18.35;48.65;100009.66;4983286;28;20213;-77
2023/12/04 07:56:26;;;;;;;4.80;3.67;;;;;;;18.33;48.27;100006.38;4995756;28;20180;-77
2023/12/04 07:58:51;;;;;;;4.63;3.47;;;;;;;18.29;48.45;100004.63;4989452;28;20185;-77
2023/12/04 08:01:17;;;;;;;5.03;3.53;;;;;;;18.26;49.14;100003.38;4980508;28;20189;-77
2023/12/04 08:03:42;;;;;;;4.77;3.73;;;;;;;18.27;48.42;99990.72;4987694;28;20248;-77
2023/12/04 08:06:08;;;;;;;5.10;3.43;;;;;;;18.30;48.84;99989.13;4975509;28;20196;-77
2023/12/04 08:08:34;;;;;;;5.40;3.80;;;;;;;18.27;48.67;99987.88;4975512;28;20241;-77
2023/12/04 08:10:59;;;;;;;5.20;3.80;;;;;;;18.33;48.39;99982.69;4975334;28;20176;-75
2023/12/04 08:13:25;;;;;;;6.07;4.20;;;;;;;18.30;48.29;99972.81;4975894;28;20747;-77
2023/12/04 08:15:50;;;;;;;4.47;3.57;;;;;;;18.29;48.34;99973.22;4976297;28;20180;-77
2023/12/04 08:18:16;;;;;;;4.10;3.10;;;;;;;18.32;48.61;99979.00;4975377;28;20809;-78
2023/12/04 08:20:42;;;;;;;5.47;3.60;;;;;;;18.28;48.46;99978.13;4975678;28;20251;-77
2023/12/04 08:23:08;;;;;;;5.00;3.73;;;;;;;18.30;48.71;99981.41;4992112;28;20169;-77
2023/12/04 08:25:33;;;;;;;4.37;3.50;;;;;;;18.32;49.09;99976.13;4976500;28;21467;-73
2023/12/04 08:27:59;;;;;;;6.30;3.47;;;;;;;18.32;48.73;99972.44;4982580;28;20244;-72
2023/12/04 08:30:26;;;;;;;5.90;3.50;;;;;;;18.34;48.46;99975.75;4960244;28;20181;-72
2023/12/04 08:32:52;;;;;;;4.70;3.10;;;;;;;18.33;48.22;99974.94;4972993;28;20467;-72
2023/12/04 08:35:18;;;;;;;6.60;4.50;;;;;;;18.28;48.84;99978.13;4992289;28;20533;-73
2023/12/04 08:37:43;;;;;;;4.43;3.33;;;;;;;18.34;48.55;99970.03;4991463;28;20192;-73
2023/12/04 08:40:10;;;;;;;4.63;3.30;;;;;;;18.33;48.37;99980.66;5007792;28;20164;-73
2023/12/04 08:42:35;;;;;;;5.83;3.70;;;;;;;18.37;48.55;99983.56;4991139;28;20195;-73
2023/12/04 08:45:01;;;;;;;4.53;3.60;;;;;;;18.35;48.25;99995.38;4958867;28;20431;-73
2023/12/04 08:47:26;;;;;;;4.77;3.20;;;;;;;18.37;48.58;99998.66;5001152;28;20173;-72
2023/12/04 08:49:52;;;;;;;5.03;3.30;;;;;;;18.35;48.40;100003.13;5026432;28;20176;-73
2023/12/04 08:52:17;;;;;;;5.10;3.30;;;;;;;18.37;48.50;100004.38;4992826;28;20209;-72
2023/12/04 08:54:42;;;;;;;5.80;4.20;;;;;;;18.34;48.68;99993.75;5026881;28;20168;-73
2023/12/04 08:57:08;;;;;;;4.93;3.90;;;;;;;18.38;48.44;100000.34;4993183;28;20185;-72
2023/12/04 08:59:34;;;;;;;4.23;3.10;;;;;;;18.36;48.32;100002.75;5009338;28;20177;-73
2023/12/04 09:02:03;;;;;;;6.37;3.70;;;;;;;18.43;48.22;100011.44;5001824;28;20200;-72
2023/12/04 09:04:30;;;;;;;4.60;3.57;;;;;;;18.39;48.55;100004.84;4992226;28;20652;-75
2023/12/04 09:06:55;;;;;;;4.80;3.40;;;;;;;18.38;48.87;99996.63;4974502;28;20526;-73
2023/12/04 09:09:20;;;;;;;5.27;3.30;;;;;;;18.39;48.77;99995.41;4974801;28;20423;-73
2023/12/04 09:11:47;;;;;;;4.93;3.77;;;;;;;18.40;48.50;99997.91;4975055;28;20173;-73
2023/12/04 09:14:13;;;;;;;4.47;3.10;;;;;;;18.37;48.19;99997.84;4958546;28;20203;-72
2023/12/04 09:16:38;;;;;;;4.33;3.03;;;;;;;18.34;48.62;100018.63;4975299;28;20412;-72
2023/12/04 09:19:04;;;;;;;6.77;3.37;;;;;;;18.39;48.59;100041.16;4973901;28;20193;-72
2023/12/04 09:21:29;;;;;;;5.27;3.53;;;;;;;18.34;49.02;100032.91;4990883;28;20169;-74
2023/12/04 09:23:55;;;;;;;4.60;2.80;;;;;;;18.32;48.66;100019.00;4990844;28;20165;-73
2023/12/04 09:26:20;;;;;;;5.00;3.90;;;;;;;18.34;48.54;100019.47;4989496;28;20434;-73
2023/12/04 09:28:46;;;;;;;5.90;3.83;;;;;;;18.35;48.59;100046.00;4989717;28;20177;-73
2023/12/04 09:31:11;;;;;;;4.67;3.57;;;;;;;18.34;48.66;100033.75;4989443;28;20181;-73
2023/12/04 09:33:37;;;;;;;5.17;2.87;;;;;;;18.34;49.01;100022.31;4987770;28;20275;-73
2023/12/04 09:36:03;;;;;;;5.27;3.33;;;;;;;18.34;48.52;100004.34;4989242;28;20625;-75
2023/12/04 09:38:28;;;;;;;4.60;3.37;;;;;;;18.34;48.45;99992.91;4954116;28;20983;-75
2023/12/04 09:40:54;;;;;;;5.40;3.53;;;;;;;18.33;48.73;99977.81;4971498;28;20471;-76
2023/12/04 09:43:19;;;;;;;5.20;3.77;;;;;;;18.33;48.56;99980.66;4989414;28;20161;-76
2023/12/04 09:45:45;;;;;;;4.53;3.00;;;;;;;18.33;48.62;99969.25;4992413;28;20184;-76
2023/12/04 09:48:11;;;;;;;4.53;3.40;;;;;;;18.36;48.78;99968.44;4988776;28;20196;-76
2023/12/04 09:50:37;;;;;;;4.77;3.40;;;;;;;18.35;48.56;99961.09;4990308;28;20201;-76
2023/12/04 09:53:03;;;;;;;4.30;3.30;;;;;;;18.36;48.79;99962.72;4995669;28;20460;-76
2023/12/04 09:55:28;;;;;;;4.03;2.90;;;;;;;18.32;48.89;99953.28;4974050;28;20447;-75
2023/12/04 09:57:54;;;;;;;5.20;3.30;;;;;;;18.36;48.59;99950.50;5004226;28;20191;-76
2023/12/04 10:00:19;;;;;;;4.03;3.30;;;;;;;18.37;48.67;99963.56;4980351;28;20200;-75
2023/12/04 10:02:45;;;;;;;3.67;3.00;;;;;;;18.33;49.00;99969.25;4992430;28;20173;-77
2023/12/04 10:05:10;;;;;;;4.60;3.27;;;;;;;18.34;48.64;99948.00;4974132;28;20185;-76
2023/12/04 10:07:38;;;;;;;4.47;2.93;;;;;;;18.38;48.50;99945.19;4963463;28;20295;-76
2023/12/04 10:10:07;;;;;;;3.97;3.27;;;;;;;18.37;48.85;99949.28;4984861;28;20180;-76
2023/12/04 10:12:36;;;;;;;4.90;3.40;;;;;;;18.37;48.63;99947.22;4959022;28;20464;-76
2023/12/04 10:15:08;;;;;;;4.67;3.40;;;;;;;18.42;48.91;99944.00;4974402;28;20443;-76
2023/12/04 10:17:37;;;;;;;5.70;3.43;;;;;;;18.39;48.86;99932.53;4990645;28;20870;-76
2023/12/04 10:20:12;;;;;;;4.67;3.10;;;;;;;18.43;48.96;99936.28;4990503;28;20424;-76
2023/12/04 10:22:55;;;;;;;4.30;3.40;;;;;;;18.41;48.69;99935.84;4949682;28;20502;-76
2023/12/04 10:25:20;;;;;;;4.50;3.70;;;;;;;18.36;48.70;99922.72;5002775;28;20441;-76
2023/12/04 10:27:46;;;;;;;5.00;3.50;;;;;;;18.41;48.80;99936.66;4996777;28;21144;-76
2023/12/04 10:30:32;;;;;;;4.93;4.00;;;;;;;18.43;48.70;99899.13;5011605;28;20259;-75
2023/12/04 10:33:00;;;;;;;4.43;3.00;;;;;;;18.36;48.62;99914.16;4992607;28;20580;-77
2023/12/04 10:35:32;;;;;;;5.20;3.23;;;;;;;18.41;48.77;99902.38;4947514;28;20588;-76
2023/12/04 10:37:57;;;;;;;4.47;3.40;;;;;;;18.38;48.86;99897.44;4974246;28;20430;-76
2023/12/04 10:40:27;;;;;;;8.60;3.60;;;;;;;18.39;48.84;99895.41;4975625;28;20834;-76
2023/12/04 10:43:22;;;;;;;6.30;3.17;;;;;;;18.41;48.63;99908.06;5005502;28;20181;-77
2023/12/04 10:45:48;;;;;;;5.43;3.03;;;;;;;18.34;49.21;99908.00;4978986;28;20448;-76
2023/12/04 10:48:15;;;;;;;4.13;2.73;;;;;;;18.37;49.01;99901.50;4975161;28;20409;-76
2023/12/04 10:50:45;;;;;;;4.37;3.27;;;;;;;18.39;48.62;99899.09;5011115;28;20446;-75
2023/12/04 10:53:11;;;;;;;4.50;3.40;;;;;;;18.37;48.57;99889.25;4993023;28;20478;-76
2023/12/04 10:55:37;;;;;;;4.20;2.87;;;;;;;18.39;48.44;99875.38;4976675;28;20491;-74
2023/12/04 10:58:12;;;;;;;4.13;3.03;;;;;;;18.39;48.94;99881.94;4992717;28;20431;-74
2023/12/04 11:00:45;;;;;;;4.07;3.10;;;;;;;18.39;49.13;99864.78;4975877;28;20195;-74
2023/12/04 11:03:33;;;;;;;5.00;3.20;;;;;;;18.38;49.30;99846.00;5009860;28;20430;-74
2023/12/04 11:06:01;;;;;;;5.03;3.40;;;;;;;18.39;49.08;99847.66;4974018;28;20412;-73
2023/12/04 11:08:31;;;;;;;5.27;3.33;;;;;;;18.38;49.12;99834.56;4979798;28;20436;-74
2023/12/04 11:10:58;;;;;;;4.80;3.17;;;;;;;18.39;48.94;99839.06;4993876;28;20975;-74
2023/12/04 11:13:28;;;;;;;4.40;3.20;;;;;;;18.40;48.87;99840.69;4977185;28;20990;-73
2023/12/04 11:15:53;;;;;;;4.33;3.43;;;;;;;18.36;49.14;99833.31;5009827;28;20400;-73
2023/12/04 11:18:21;;;;;;;6.07;3.73;;;;;;;18.38;48.77;99822.31;5007709;28;20471;-74
2023/12/04 11:20:51;;;;;;;5.37;3.57;;;;;;;18.39;48.91;99818.22;4992787;28;20219;-74